sensor_id;sensor_type;location;lat;lon;timestamp;P1;durP1;ratioP1;P2;durP2;ratioP2
59824;SDS011;45703;50.898;6.054;2023-02-28T00:01:31;9.20;;;3.83;;
59824;SDS011;45703;50.898;6.054;2023-02-28T00:03:56;7.90;;;3.97;;
59824;SDS011;45703;50.898;6.054;2023-02-28T00:06:22;8.00;;;4.18;;
59824;SDS011;45703;50.898;6.054;2023-02-28T00:08:49;8.60;;;4.20;;
59824;SDS011;45703;50.898;6.054;2023-02-28T00:11:14;8.80;;;4.28;;
59824;SDS011;45703;50.898;6.054;2023-02-28T00:13:42;7.68;;;4.20;;
59824;SDS011;45703;50.898;6.054;2023-02-28T00:16:12;9.13;;;4.20;;
59824;SDS011;45703;50.898;6.054;2023-02-28T00:18:39;8.85;;;4.28;;
59824;SDS011;45703;50.898;6.054;2023-02-28T00:21:05;8.20;;;4.40;;
59824;SDS011;45703;50.898;6.054;2023-02-28T00:23:32;9.82;;;4.10;;
59824;SDS011;45703;50.898;6.054;2023-02-28T00:25:58;10.50;;;4.53;;
59824;SDS011;45703;50.898;6.054;2023-02-28T00:28:24;7.05;;;3.70;;
59824;SDS011;45703;50.898;6.054;2023-02-28T00:30:49;8.20;;;4.20;;
59824;SDS011;45703;50.898;6.054;2023-02-28T00:33:15;8.88;;;4.00;;
59824;SDS011;45703;50.898;6.054;2023-02-28T00:35:41;7.80;;;3.80;;
59824;SDS011;45703;50.898;6.054;2023-02-28T00:38:07;8.32;;;3.85;;
59824;SDS011;45703;50.898;6.054;2023-02-28T00:40:32;9.07;;;3.97;;
59824;SDS011;45703;50.898;6.054;2023-02-28T00:42:58;8.05;;;3.63;;
59824;SDS011;45703;50.898;6.054;2023-02-28T00:45:23;8.57;;;3.95;;
59824;SDS011;45703;50.898;6.054;2023-02-28T00:47:48;9.93;;;4.05;;
59824;SDS011;45703;50.898;6.054;2023-02-28T00:50:23;8.45;;;3.70;;
59824;SDS011;45703;50.898;6.054;2023-02-28T00:52:49;8.15;;;3.85;;
59824;SDS011;45703;50.898;6.054;2023-02-28T00:55:14;8.55;;;4.20;;
59824;SDS011;45703;50.898;6.054;2023-02-28T00:57:40;8.57;;;4.40;;
59824;SDS011;45703;50.898;6.054;2023-02-28T01:00:06;8.98;;;4.32;;
59824;SDS011;45703;50.898;6.054;2023-02-28T01:02:32;8.50;;;4.40;;
59824;SDS011;45703;50.898;6.054;2023-02-28T01:04:59;8.65;;;4.07;;
59824;SDS011;45703;50.898;6.054;2023-02-28T01:07:24;10.25;;;4.45;;
59824;SDS011;45703;50.898;6.054;2023-02-28T01:09:50;10.02;;;4.53;;
59824;SDS011;45703;50.898;6.054;2023-02-28T01:12:15;8.45;;;4.07;;
59824;SDS011;45703;50.898;6.054;2023-02-28T01:14:41;9.20;;;3.60;;
59824;SDS011;45703;50.898;6.054;2023-02-28T01:17:07;8.85;;;3.85;;
59824;SDS011;45703;50.898;6.054;2023-02-28T01:19:32;8.18;;;3.85;;
59824;SDS011;45703;50.898;6.054;2023-02-28T01:22:00;8.90;;;4.05;;
59824;SDS011;45703;50.898;6.054;2023-02-28T01:24:27;8.85;;;3.63;;
59824;SDS011;45703;50.898;6.054;2023-02-28T01:26:52;7.93;;;4.38;;
59824;SDS011;45703;50.898;6.054;2023-02-28T01:29:18;8.80;;;4.45;;
59824;SDS011;45703;50.898;6.054;2023-02-28T01:31:43;8.65;;;4.05;;
59824;SDS011;45703;50.898;6.054;2023-02-28T01:34:09;8.32;;;3.95;;
59824;SDS011;45703;50.898;6.054;2023-02-28T01:36:34;10.00;;;4.43;;
59824;SDS011;45703;50.898;6.054;2023-02-28T01:38:59;10.13;;;4.10;;
59824;SDS011;45703;50.898;6.054;2023-02-28T01:41:26;8.95;;;3.90;;
59824;SDS011;45703;50.898;6.054;2023-02-28T01:43:58;9.82;;;4.30;;
59824;SDS011;45703;50.898;6.054;2023-02-28T01:46:33;9.93;;;4.28;;
59824;SDS011;45703;50.898;6.054;2023-02-28T01:49:05;9.07;;;4.35;;
59824;SDS011;45703;50.898;6.054;2023-02-28T01:54:05;9.30;;;4.00;;
59824;SDS011;45703;50.898;6.054;2023-02-28T01:56:38;9.00;;;3.92;;
59824;SDS011;45703;50.898;6.054;2023-02-28T01:59:10;8.00;;;3.60;;
59824;SDS011;45703;50.898;6.054;2023-02-28T02:01:39;9.00;;;3.53;;
59824;SDS011;45703;50.898;6.054;2023-02-28T02:04:04;9.02;;;3.78;;
59824;SDS011;45703;50.898;6.054;2023-02-28T02:06:34;7.53;;;3.35;;
59824;SDS011;45703;50.898;6.054;2023-02-28T02:09:03;7.97;;;3.67;;
59824;SDS011;45703;50.898;6.054;2023-02-28T02:11:28;7.55;;;3.50;;
59824;SDS011;45703;50.898;6.054;2023-02-28T02:34:27;7.50;;;3.50;;
59824;SDS011;45703;50.898;6.054;2023-02-28T02:40:07;9.18;;;3.35;;
59824;SDS011;45703;50.898;6.054;2023-02-28T02:45:30;8.07;;;3.42;;
59824;SDS011;45703;50.898;6.054;2023-02-28T02:48:03;8.73;;;3.97;;
59824;SDS011;45703;50.898;6.054;2023-02-28T02:53:02;7.85;;;3.60;;
59824;SDS011;45703;50.898;6.054;2023-02-28T02:55:30;8.85;;;3.25;;
59824;SDS011;45703;50.898;6.054;2023-02-28T02:58:01;7.68;;;3.00;;
59824;SDS011;45703;50.898;6.054;2023-02-28T03:00:34;7.25;;;3.30;;
59824;SDS011;45703;50.898;6.054;2023-02-28T03:03:04;7.22;;;3.20;;
59824;SDS011;45703;50.898;6.054;2023-02-28T03:08:16;9.73;;;3.78;;
59824;SDS011;45703;50.898;6.054;2023-02-28T03:10:46;6.53;;;2.90;;
59824;SDS011;45703;50.898;6.054;2023-02-28T03:16:13;8.98;;;3.25;;
59824;SDS011;45703;50.898;6.054;2023-02-28T03:19:37;6.75;;;2.65;;
59824;SDS011;45703;50.898;6.054;2023-02-28T03:30:09;8.02;;;3.17;;
59824;SDS011;45703;50.898;6.054;2023-02-28T03:32:53;7.43;;;3.22;;
59824;SDS011;45703;50.898;6.054;2023-02-28T03:35:23;8.05;;;2.97;;
59824;SDS011;45703;50.898;6.054;2023-02-28T03:37:55;7.55;;;3.05;;
59824;SDS011;45703;50.898;6.054;2023-02-28T03:40:26;8.13;;;3.15;;
59824;SDS011;45703;50.898;6.054;2023-02-28T03:42:59;8.73;;;3.17;;
59824;SDS011;45703;50.898;6.054;2023-02-28T03:45:29;8.77;;;3.55;;
59824;SDS011;45703;50.898;6.054;2023-02-28T03:48:06;6.95;;;2.85;;
59824;SDS011;45703;50.898;6.054;2023-02-28T03:50:39;8.82;;;3.35;;
59824;SDS011;45703;50.898;6.054;2023-02-28T03:55:40;8.15;;;3.40;;
59824;SDS011;45703;50.898;6.054;2023-02-28T03:58:24;8.30;;;3.45;;
59824;SDS011;45703;50.898;6.054;2023-02-28T04:00:58;8.48;;;3.50;;
59824;SDS011;45703;50.898;6.054;2023-02-28T04:03:33;9.07;;;3.47;;
59824;SDS011;45703;50.898;6.054;2023-02-28T04:05:59;8.75;;;3.67;;
59824;SDS011;45703;50.898;6.054;2023-02-28T04:08:25;9.60;;;3.30;;
59824;SDS011;45703;50.898;6.054;2023-02-28T04:11:06;7.43;;;3.17;;
59824;SDS011;45703;50.898;6.054;2023-02-28T04:13:43;9.20;;;3.60;;
59824;SDS011;45703;50.898;6.054;2023-02-28T04:16:08;8.27;;;3.90;;
59824;SDS011;45703;50.898;6.054;2023-02-28T04:18:37;7.80;;;3.80;;
59824;SDS011;45703;50.898;6.054;2023-02-28T04:21:06;8.93;;;4.18;;
59824;SDS011;45703;50.898;6.054;2023-02-28T04:23:32;9.13;;;4.68;;
59824;SDS011;45703;50.898;6.054;2023-02-28T04:25:58;10.90;;;4.68;;
59824;SDS011;45703;50.898;6.054;2023-02-28T04:28:23;8.68;;;4.50;;
59824;SDS011;45703;50.898;6.054;2023-02-28T04:30:56;9.65;;;4.57;;
59824;SDS011;45703;50.898;6.054;2023-02-28T04:33:23;10.07;;;4.78;;
59824;SDS011;45703;50.898;6.054;2023-02-28T04:35:57;10.35;;;5.20;;
59824;SDS011;45703;50.898;6.054;2023-02-28T04:38:23;10.00;;;4.82;;
59824;SDS011;45703;50.898;6.054;2023-02-28T04:40:49;8.45;;;4.45;;
59824;SDS011;45703;50.898;6.054;2023-02-28T04:43:14;10.00;;;4.80;;
59824;SDS011;45703;50.898;6.054;2023-02-28T04:45:40;9.43;;;5.72;;
59824;SDS011;45703;50.898;6.054;2023-02-28T04:48:05;10.70;;;4.97;;
59824;SDS011;45703;50.898;6.054;2023-02-28T04:50:30;9.35;;;5.13;;
59824;SDS011;45703;50.898;6.054;2023-02-28T04:52:56;10.52;;;5.68;;
59824;SDS011;45703;50.898;6.054;2023-02-28T04:55:21;8.40;;;5.05;;
59824;SDS011;45703;50.898;6.054;2023-02-28T04:57:47;10.57;;;5.10;;
59824;SDS011;45703;50.898;6.054;2023-02-28T05:00:13;11.68;;;5.80;;
59824;SDS011;45703;50.898;6.054;2023-02-28T05:02:41;9.75;;;5.13;;
59824;SDS011;45703;50.898;6.054;2023-02-28T05:05:07;9.13;;;4.88;;
59824;SDS011;45703;50.898;6.054;2023-02-28T05:07:33;11.30;;;5.85;;
59824;SDS011;45703;50.898;6.054;2023-02-28T05:09:58;11.23;;;5.75;;
59824;SDS011;45703;50.898;6.054;2023-02-28T05:12:23;9.32;;;5.18;;
59824;SDS011;45703;50.898;6.054;2023-02-28T05:14:49;9.85;;;5.22;;
59824;SDS011;45703;50.898;6.054;2023-02-28T05:17:14;11.13;;;5.07;;
59824;SDS011;45703;50.898;6.054;2023-02-28T05:19:39;8.98;;;5.45;;
59824;SDS011;45703;50.898;6.054;2023-02-28T05:22:11;10.05;;;5.15;;
59824;SDS011;45703;50.898;6.054;2023-02-28T05:24:39;12.20;;;5.68;;
59824;SDS011;45703;50.898;6.054;2023-02-28T05:27:04;11.77;;;5.57;;
59824;SDS011;45703;50.898;6.054;2023-02-28T05:29:30;11.35;;;5.53;;
59824;SDS011;45703;50.898;6.054;2023-02-28T05:31:55;10.98;;;6.18;;
59824;SDS011;45703;50.898;6.054;2023-02-28T05:34:20;13.27;;;6.50;;
59824;SDS011;45703;50.898;6.054;2023-02-28T05:36:46;12.70;;;5.85;;
59824;SDS011;45703;50.898;6.054;2023-02-28T05:39:11;15.50;;;5.90;;
59824;SDS011;45703;50.898;6.054;2023-02-28T05:41:38;12.00;;;5.80;;
59824;SDS011;45703;50.898;6.054;2023-02-28T05:44:04;11.35;;;6.18;;
59824;SDS011;45703;50.898;6.054;2023-02-28T05:46:30;10.80;;;5.93;;
59824;SDS011;45703;50.898;6.054;2023-02-28T05:48:55;11.20;;;5.10;;
59824;SDS011;45703;50.898;6.054;2023-02-28T05:51:22;10.07;;;5.45;;
59824;SDS011;45703;50.898;6.054;2023-02-28T05:53:48;10.75;;;5.72;;
59824;SDS011;45703;50.898;6.054;2023-02-28T05:56:14;11.60;;;5.95;;
59824;SDS011;45703;50.898;6.054;2023-02-28T05:58:39;10.50;;;5.47;;
59824;SDS011;45703;50.898;6.054;2023-02-28T06:04:03;9.85;;;5.18;;
59824;SDS011;45703;50.898;6.054;2023-02-28T06:06:30;11.65;;;5.38;;
59824;SDS011;45703;50.898;6.054;2023-02-28T06:08:56;10.43;;;5.30;;
59824;SDS011;45703;50.898;6.054;2023-02-28T06:11:22;12.35;;;5.82;;
59824;SDS011;45703;50.898;6.054;2023-02-28T06:13:53;10.82;;;5.78;;
59824;SDS011;45703;50.898;6.054;2023-02-28T06:16:19;11.43;;;5.72;;
59824;SDS011;45703;50.898;6.054;2023-02-28T06:18:45;9.85;;;5.45;;
59824;SDS011;45703;50.898;6.054;2023-02-28T06:21:11;9.70;;;5.93;;
59824;SDS011;45703;50.898;6.054;2023-02-28T06:23:37;8.52;;;5.05;;
59824;SDS011;45703;50.898;6.054;2023-02-28T06:26:02;9.65;;;5.05;;
59824;SDS011;45703;50.898;6.054;2023-02-28T06:28:28;9.90;;;5.18;;
59824;SDS011;45703;50.898;6.054;2023-02-28T06:30:53;9.85;;;6.10;;
59824;SDS011;45703;50.898;6.054;2023-02-28T06:33:19;11.35;;;5.90;;
59824;SDS011;45703;50.898;6.054;2023-02-28T06:35:46;12.30;;;6.25;;
59824;SDS011;45703;50.898;6.054;2023-02-28T06:38:12;9.25;;;5.25;;
59824;SDS011;45703;50.898;6.054;2023-02-28T06:40:37;9.05;;;4.72;;
59824;SDS011;45703;50.898;6.054;2023-02-28T06:43:03;9.18;;;4.57;;
59824;SDS011;45703;50.898;6.054;2023-02-28T06:45:29;10.77;;;5.45;;
59824;SDS011;45703;50.898;6.054;2023-02-28T06:47:54;10.45;;;5.35;;
59824;SDS011;45703;50.898;6.054;2023-02-28T06:50:20;11.32;;;5.03;;
59824;SDS011;45703;50.898;6.054;2023-02-28T06:52:46;13.40;;;5.88;;
59824;SDS011;45703;50.898;6.054;2023-02-28T06:55:11;12.60;;;5.32;;
59824;SDS011;45703;50.898;6.054;2023-02-28T06:57:37;9.40;;;5.00;;
59824;SDS011;45703;50.898;6.054;2023-02-28T07:00:07;11.00;;;5.47;;
59824;SDS011;45703;50.898;6.054;2023-02-28T07:02:34;9.63;;;4.85;;
59824;SDS011;45703;50.898;6.054;2023-02-28T07:05:00;9.55;;;4.97;;
59824;SDS011;45703;50.898;6.054;2023-02-28T07:07:26;10.88;;;5.43;;
59824;SDS011;45703;50.898;6.054;2023-02-28T07:09:51;10.35;;;5.20;;
59824;SDS011;45703;50.898;6.054;2023-02-28T07:12:17;12.07;;;5.47;;
59824;SDS011;45703;50.898;6.054;2023-02-28T07:14:42;10.95;;;4.88;;
59824;SDS011;45703;50.898;6.054;2023-02-28T07:17:08;10.68;;;5.18;;
59824;SDS011;45703;50.898;6.054;2023-02-28T07:19:36;12.23;;;4.78;;
59824;SDS011;45703;50.898;6.054;2023-02-28T07:22:02;9.73;;;5.07;;
59824;SDS011;45703;50.898;6.054;2023-02-28T07:24:28;11.93;;;4.70;;
59824;SDS011;45703;50.898;6.054;2023-02-28T07:26:54;11.73;;;5.20;;
59824;SDS011;45703;50.898;6.054;2023-02-28T07:29:20;9.43;;;4.93;;
59824;SDS011;45703;50.898;6.054;2023-02-28T07:31:45;10.52;;;4.82;;
59824;SDS011;45703;50.898;6.054;2023-02-28T07:34:11;10.65;;;4.72;;
59824;SDS011;45703;50.898;6.054;2023-02-28T07:36:37;10.35;;;5.00;;
59824;SDS011;45703;50.898;6.054;2023-02-28T07:39:02;10.40;;;4.65;;
59824;SDS011;45703;50.898;6.054;2023-02-28T07:41:29;9.80;;;4.60;;
59824;SDS011;45703;50.898;6.054;2023-02-28T07:43:55;10.25;;;4.72;;
59824;SDS011;45703;50.898;6.054;2023-02-28T07:46:22;9.35;;;4.78;;
59824;SDS011;45703;50.898;6.054;2023-02-28T07:48:47;9.75;;;4.65;;
59824;SDS011;45703;50.898;6.054;2023-02-28T07:51:13;10.20;;;4.65;;
59824;SDS011;45703;50.898;6.054;2023-02-28T07:53:38;10.18;;;4.78;;
59824;SDS011;45703;50.898;6.054;2023-02-28T07:56:04;9.98;;;4.90;;
59824;SDS011;45703;50.898;6.054;2023-02-28T07:58:30;9.13;;;4.47;;
59824;SDS011;45703;50.898;6.054;2023-02-28T08:00:56;9.40;;;3.97;;
59824;SDS011;45703;50.898;6.054;2023-02-28T08:03:21;8.80;;;4.28;;
59824;SDS011;45703;50.898;6.054;2023-02-28T08:05:48;7.70;;;4.30;;
59824;SDS011;45703;50.898;6.054;2023-02-28T08:08:14;8.48;;;4.13;;
59824;SDS011;45703;50.898;6.054;2023-02-28T08:10:41;7.95;;;4.07;;
59824;SDS011;45703;50.898;6.054;2023-02-28T08:13:07;9.82;;;4.45;;
59824;SDS011;45703;50.898;6.054;2023-02-28T08:15:32;8.30;;;3.80;;
59824;SDS011;45703;50.898;6.054;2023-02-28T08:17:58;8.35;;;3.90;;
59824;SDS011;45703;50.898;6.054;2023-02-28T08:20:24;9.18;;;4.28;;
59824;SDS011;45703;50.898;6.054;2023-02-28T08:22:51;8.20;;;3.92;;
59824;SDS011;45703;50.898;6.054;2023-02-28T08:25:17;9.88;;;4.50;;
59824;SDS011;45703;50.898;6.054;2023-02-28T08:27:43;8.25;;;3.90;;
59824;SDS011;45703;50.898;6.054;2023-02-28T08:30:12;7.63;;;3.85;;
59824;SDS011;45703;50.898;6.054;2023-02-28T08:32:39;7.75;;;3.65;;
59824;SDS011;45703;50.898;6.054;2023-02-28T08:35:05;9.10;;;3.88;;
59824;SDS011;45703;50.898;6.054;2023-02-28T08:37:31;7.55;;;4.00;;
59824;SDS011;45703;50.898;6.054;2023-02-28T08:39:57;8.50;;;4.00;;
59824;SDS011;45703;50.898;6.054;2023-02-28T08:42:23;7.32;;;4.03;;
59824;SDS011;45703;50.898;6.054;2023-02-28T08:44:48;7.68;;;4.05;;
59824;SDS011;45703;50.898;6.054;2023-02-28T08:47:14;8.45;;;3.75;;
59824;SDS011;45703;50.898;6.054;2023-02-28T08:49:39;7.63;;;3.70;;
59824;SDS011;45703;50.898;6.054;2023-02-28T08:52:05;8.73;;;4.20;;
59824;SDS011;45703;50.898;6.054;2023-02-28T08:54:31;9.95;;;3.65;;
59824;SDS011;45703;50.898;6.054;2023-02-28T08:56:58;8.95;;;3.60;;
59824;SDS011;45703;50.898;6.054;2023-02-28T08:59:23;7.25;;;3.58;;
59824;SDS011;45703;50.898;6.054;2023-02-28T09:01:49;8.10;;;3.65;;
59824;SDS011;45703;50.898;6.054;2023-02-28T09:04:14;7.82;;;3.85;;
59824;SDS011;45703;50.898;6.054;2023-02-28T09:06:39;7.95;;;3.78;;
59824;SDS011;45703;50.898;6.054;2023-02-28T09:09:05;7.78;;;3.58;;
59824;SDS011;45703;50.898;6.054;2023-02-28T09:11:32;8.13;;;3.67;;
59824;SDS011;45703;50.898;6.054;2023-02-28T09:13:59;8.95;;;3.58;;
59824;SDS011;45703;50.898;6.054;2023-02-28T09:16:25;8.68;;;4.03;;
59824;SDS011;45703;50.898;6.054;2023-02-28T09:18:51;8.10;;;3.60;;
59824;SDS011;45703;50.898;6.054;2023-02-28T09:21:17;8.10;;;3.42;;
59824;SDS011;45703;50.898;6.054;2023-02-28T09:23:44;7.72;;;3.15;;
59824;SDS011;45703;50.898;6.054;2023-02-28T09:26:15;10.07;;;3.72;;
59824;SDS011;45703;50.898;6.054;2023-02-28T09:28:45;8.05;;;3.70;;
59824;SDS011;45703;50.898;6.054;2023-02-28T09:31:14;9.15;;;3.63;;
59824;SDS011;45703;50.898;6.054;2023-02-28T09:33:45;8.55;;;3.63;;
59824;SDS011;45703;50.898;6.054;2023-02-28T09:36:11;7.32;;;3.53;;
59824;SDS011;45703;50.898;6.054;2023-02-28T09:38:36;6.75;;;2.97;;
59824;SDS011;45703;50.898;6.054;2023-02-28T09:41:03;6.80;;;3.00;;
59824;SDS011;45703;50.898;6.054;2023-02-28T09:43:37;7.80;;;3.03;;
59824;SDS011;45703;50.898;6.054;2023-02-28T09:48:56;6.25;;;2.67;;
59824;SDS011;45703;50.898;6.054;2023-02-28T09:54:06;6.32;;;2.13;;
59824;SDS011;45703;50.898;6.054;2023-02-28T09:56:39;6.20;;;2.33;;
59824;SDS011;45703;50.898;6.054;2023-02-28T10:10:18;6.60;;;2.03;;
59824;SDS011;45703;50.898;6.054;2023-02-28T10:12:48;6.03;;;2.20;;
59824;SDS011;45703;50.898;6.054;2023-02-28T10:15:17;5.93;;;2.22;;
59824;SDS011;45703;50.898;6.054;2023-02-28T10:17:47;5.85;;;1.92;;
59824;SDS011;45703;50.898;6.054;2023-02-28T10:22:57;5.72;;;2.17;;
59824;SDS011;45703;50.898;6.054;2023-02-28T10:25:32;6.30;;;1.98;;
59824;SDS011;45703;50.898;6.054;2023-02-28T10:28:01;5.28;;;2.20;;
59824;SDS011;45703;50.898;6.054;2023-02-28T10:30:32;6.00;;;2.10;;
59824;SDS011;45703;50.898;6.054;2023-02-28T10:32:58;6.25;;;2.47;;
59824;SDS011;45703;50.898;6.054;2023-02-28T10:35:24;6.40;;;2.10;;
59824;SDS011;45703;50.898;6.054;2023-02-28T10:37:55;5.82;;;2.13;;
59824;SDS011;45703;50.898;6.054;2023-02-28T10:42:59;6.20;;;2.20;;
59824;SDS011;45703;50.898;6.054;2023-02-28T10:45:27;6.00;;;1.85;;
59824;SDS011;45703;50.898;6.054;2023-02-28T10:55:58;6.47;;;2.08;;
59824;SDS011;45703;50.898;6.054;2023-02-28T11:01:21;5.72;;;2.05;;
59824;SDS011;45703;50.898;6.054;2023-02-28T11:03:49;5.32;;;1.92;;
59824;SDS011;45703;50.898;6.054;2023-02-28T11:06:20;5.78;;;1.90;;
59824;SDS011;45703;50.898;6.054;2023-02-28T11:08:56;6.07;;;1.98;;
59824;SDS011;45703;50.898;6.054;2023-02-28T11:11:26;5.75;;;1.90;;
59824;SDS011;45703;50.898;6.054;2023-02-28T11:13:56;5.73;;;1.80;;
59824;SDS011;45703;50.898;6.054;2023-02-28T11:16:32;5.55;;;1.80;;
59824;SDS011;45703;50.898;6.054;2023-02-28T11:19:00;6.53;;;1.98;;
59824;SDS011;45703;50.898;6.054;2023-02-28T11:21:27;5.60;;;2.05;;
59824;SDS011;45703;50.898;6.054;2023-02-28T11:26:54;7.30;;;2.80;;
59824;SDS011;45703;50.898;6.054;2023-02-28T11:29:24;5.90;;;2.15;;
59824;SDS011;45703;50.898;6.054;2023-02-28T11:34:27;7.22;;;2.10;;
59824;SDS011;45703;50.898;6.054;2023-02-28T11:36:57;4.95;;;1.75;;
59824;SDS011;45703;50.898;6.054;2023-02-28T11:39:24;6.72;;;2.45;;
59824;SDS011;45703;50.898;6.054;2023-02-28T11:42:00;6.45;;;2.20;;
59824;SDS011;45703;50.898;6.054;2023-02-28T11:44:48;5.55;;;2.13;;
59824;SDS011;45703;50.898;6.054;2023-02-28T12:07:04;7.18;;;3.00;;
59824;SDS011;45703;50.898;6.054;2023-02-28T12:15:43;6.20;;;2.30;;
59824;SDS011;45703;50.898;6.054;2023-02-28T12:21:04;5.68;;;2.30;;
59824;SDS011;45703;50.898;6.054;2023-02-28T12:26:28;6.50;;;2.85;;
59824;SDS011;45703;50.898;6.054;2023-02-28T12:28:56;6.55;;;2.85;;
59824;SDS011;45703;50.898;6.054;2023-02-28T12:31:28;7.97;;;3.15;;
59824;SDS011;45703;50.898;6.054;2023-02-28T12:33:58;7.00;;;3.30;;
59824;SDS011;45703;50.898;6.054;2023-02-28T12:36:28;7.45;;;3.08;;
59824;SDS011;45703;50.898;6.054;2023-02-28T12:39:04;7.00;;;2.83;;
59824;SDS011;45703;50.898;6.054;2023-02-28T12:41:59;6.80;;;3.05;;
59824;SDS011;45703;50.898;6.054;2023-02-28T12:44:37;6.93;;;2.42;;
59824;SDS011;45703;50.898;6.054;2023-02-28T12:47:11;7.13;;;2.72;;
59824;SDS011;45703;50.898;6.054;2023-02-28T12:49:45;6.95;;;2.75;;
59824;SDS011;45703;50.898;6.054;2023-02-28T12:52:16;7.38;;;2.63;;
59824;SDS011;45703;50.898;6.054;2023-02-28T12:57:58;6.65;;;2.72;;
59824;SDS011;45703;50.898;6.054;2023-02-28T13:00:34;6.15;;;2.67;;
59824;SDS011;45703;50.898;6.054;2023-02-28T13:06:05;7.30;;;3.10;;
59824;SDS011;45703;50.898;6.054;2023-02-28T13:09:01;7.72;;;2.88;;
59824;SDS011;45703;50.898;6.054;2023-02-28T13:11:40;7.28;;;3.35;;
59824;SDS011;45703;50.898;6.054;2023-02-28T13:19:23;7.13;;;3.25;;
59824;SDS011;45703;50.898;6.054;2023-02-28T13:21:57;7.78;;;3.17;;
59824;SDS011;45703;50.898;6.054;2023-02-28T13:24:41;7.82;;;2.90;;
59824;SDS011;45703;50.898;6.054;2023-02-28T13:29:44;7.43;;;3.40;;
59824;SDS011;45703;50.898;6.054;2023-02-28T13:55:49;7.45;;;3.38;;
59824;SDS011;45703;50.898;6.054;2023-02-28T13:58:41;9.38;;;3.63;;
59824;SDS011;45703;50.898;6.054;2023-02-28T14:06:51;6.75;;;3.03;;
59824;SDS011;45703;50.898;6.054;2023-02-28T14:11:51;7.25;;;3.15;;
59824;SDS011;45703;50.898;6.054;2023-02-28T14:17:04;6.40;;;2.95;;
59824;SDS011;45703;50.898;6.054;2023-02-28T14:19:34;7.10;;;3.40;;
59824;SDS011;45703;50.898;6.054;2023-02-28T14:25:09;7.25;;;3.20;;
59824;SDS011;45703;50.898;6.054;2023-02-28T14:27:45;7.50;;;3.40;;
59824;SDS011;45703;50.898;6.054;2023-02-28T14:38:42;7.70;;;3.47;;
59824;SDS011;45703;50.898;6.054;2023-02-28T14:43:49;9.02;;;3.80;;
59824;SDS011;45703;50.898;6.054;2023-02-28T14:46:16;10.23;;;3.63;;
59824;SDS011;45703;50.898;6.054;2023-02-28T14:48:47;7.70;;;3.70;;
59824;SDS011;45703;50.898;6.054;2023-02-28T14:51:18;7.15;;;3.33;;
59824;SDS011;45703;50.898;6.054;2023-02-28T14:53:48;9.05;;;3.78;;
59824;SDS011;45703;50.898;6.054;2023-02-28T14:56:21;8.40;;;3.72;;
59824;SDS011;45703;50.898;6.054;2023-02-28T14:58:53;7.53;;;3.50;;
59824;SDS011;45703;50.898;6.054;2023-02-28T15:01:21;7.05;;;3.60;;
59824;SDS011;45703;50.898;6.054;2023-02-28T15:03:47;7.63;;;3.30;;
59824;SDS011;45703;50.898;6.054;2023-02-28T15:06:14;7.60;;;3.47;;
59824;SDS011;45703;50.898;6.054;2023-02-28T15:08:42;8.15;;;3.85;;
59824;SDS011;45703;50.898;6.054;2023-02-28T15:11:13;7.80;;;3.55;;
59824;SDS011;45703;50.898;6.054;2023-02-28T15:13:45;8.75;;;3.65;;
59824;SDS011;45703;50.898;6.054;2023-02-28T15:21:20;7.85;;;3.88;;
59824;SDS011;45703;50.898;6.054;2023-02-28T15:23:50;7.10;;;3.42;;
59824;SDS011;45703;50.898;6.054;2023-02-28T15:26:20;8.05;;;3.38;;
59824;SDS011;45703;50.898;6.054;2023-02-28T15:28:56;7.60;;;3.47;;
59824;SDS011;45703;50.898;6.054;2023-02-28T15:31:29;7.65;;;3.40;;
59824;SDS011;45703;50.898;6.054;2023-02-28T15:33:57;9.25;;;3.60;;
59824;SDS011;45703;50.898;6.054;2023-02-28T15:36:29;8.23;;;3.35;;
59824;SDS011;45703;50.898;6.054;2023-02-28T15:38:57;8.23;;;3.60;;
59824;SDS011;45703;50.898;6.054;2023-02-28T15:47:04;7.43;;;3.25;;
59824;SDS011;45703;50.898;6.054;2023-02-28T15:49:54;7.32;;;3.40;;
59824;SDS011;45703;50.898;6.054;2023-02-28T15:52:21;7.40;;;3.25;;
59824;SDS011;45703;50.898;6.054;2023-02-28T15:54:51;8.00;;;3.45;;
59824;SDS011;45703;50.898;6.054;2023-02-28T15:57:19;6.50;;;2.90;;
59824;SDS011;45703;50.898;6.054;2023-02-28T15:59:57;7.15;;;3.08;;
59824;SDS011;45703;50.898;6.054;2023-02-28T16:02:30;7.47;;;3.00;;
59824;SDS011;45703;50.898;6.054;2023-02-28T16:07:31;7.60;;;2.90;;
59824;SDS011;45703;50.898;6.054;2023-02-28T16:09:56;6.65;;;3.00;;
59824;SDS011;45703;50.898;6.054;2023-02-28T16:12:25;7.20;;;2.95;;
59824;SDS011;45703;50.898;6.054;2023-02-28T16:14:55;9.60;;;3.33;;
59824;SDS011;45703;50.898;6.054;2023-02-28T16:17:28;8.25;;;3.15;;
59824;SDS011;45703;50.898;6.054;2023-02-28T16:19:56;6.75;;;3.08;;
59824;SDS011;45703;50.898;6.054;2023-02-28T16:22:21;7.07;;;3.03;;
59824;SDS011;45703;50.898;6.054;2023-02-28T16:24:47;6.72;;;3.28;;
59824;SDS011;45703;50.898;6.054;2023-02-28T16:27:26;7.03;;;3.40;;
59824;SDS011;45703;50.898;6.054;2023-02-28T16:29:56;6.63;;;2.80;;
59824;SDS011;45703;50.898;6.054;2023-02-28T16:32:22;7.97;;;3.38;;
59824;SDS011;45703;50.898;6.054;2023-02-28T16:34:47;6.70;;;3.20;;
59824;SDS011;45703;50.898;6.054;2023-02-28T16:37:13;6.55;;;2.78;;
59824;SDS011;45703;50.898;6.054;2023-02-28T16:39:41;7.18;;;2.88;;
59824;SDS011;45703;50.898;6.054;2023-02-28T16:42:09;8.20;;;3.15;;
59824;SDS011;45703;50.898;6.054;2023-02-28T16:44:41;6.85;;;3.22;;
59824;SDS011;45703;50.898;6.054;2023-02-28T16:47:08;6.68;;;3.08;;
59824;SDS011;45703;50.898;6.054;2023-02-28T16:49:35;7.18;;;2.83;;
59824;SDS011;45703;50.898;6.054;2023-02-28T16:52:01;7.35;;;3.15;;
59824;SDS011;45703;50.898;6.054;2023-02-28T16:54:26;7.22;;;3.05;;
59824;SDS011;45703;50.898;6.054;2023-02-28T16:56:51;7.47;;;2.92;;
59824;SDS011;45703;50.898;6.054;2023-02-28T16:59:19;6.97;;;3.08;;
59824;SDS011;45703;50.898;6.054;2023-02-28T17:01:50;7.43;;;3.20;;
59824;SDS011;45703;50.898;6.054;2023-02-28T17:04:16;7.60;;;3.03;;
59824;SDS011;45703;50.898;6.054;2023-02-28T17:06:42;7.10;;;3.08;;
59824;SDS011;45703;50.898;6.054;2023-02-28T17:09:09;7.10;;;3.35;;
59824;SDS011;45703;50.898;6.054;2023-02-28T17:11:41;6.65;;;3.28;;
59824;SDS011;45703;50.898;6.054;2023-02-28T17:14:06;7.18;;;3.30;;
59824;SDS011;45703;50.898;6.054;2023-02-28T17:16:32;6.78;;;3.35;;
59824;SDS011;45703;50.898;6.054;2023-02-28T17:19:02;7.72;;;3.22;;
59824;SDS011;45703;50.898;6.054;2023-02-28T17:21:30;7.93;;;3.90;;
59824;SDS011;45703;50.898;6.054;2023-02-28T17:23:56;7.80;;;3.25;;
59824;SDS011;45703;50.898;6.054;2023-02-28T17:26:22;7.82;;;3.60;;
59824;SDS011;45703;50.898;6.054;2023-02-28T17:28:49;7.93;;;3.40;;
59824;SDS011;45703;50.898;6.054;2023-02-28T17:31:16;8.15;;;3.60;;
59824;SDS011;45703;50.898;6.054;2023-02-28T17:33:42;7.47;;;3.58;;
59824;SDS011;45703;50.898;6.054;2023-02-28T17:36:10;7.22;;;3.47;;
59824;SDS011;45703;50.898;6.054;2023-02-28T17:38:39;8.93;;;3.85;;
59824;SDS011;45703;50.898;6.054;2023-02-28T17:41:04;7.93;;;3.67;;
59824;SDS011;45703;50.898;6.054;2023-02-28T17:43:30;8.25;;;3.80;;
59824;SDS011;45703;50.898;6.054;2023-02-28T17:45:55;8.02;;;3.90;;
59824;SDS011;45703;50.898;6.054;2023-02-28T17:48:21;8.48;;;3.97;;
59824;SDS011;45703;50.898;6.054;2023-02-28T17:50:46;8.07;;;4.00;;
59824;SDS011;45703;50.898;6.054;2023-02-28T17:53:11;10.07;;;3.95;;
59824;SDS011;45703;50.898;6.054;2023-02-28T17:55:37;8.15;;;3.90;;
59824;SDS011;45703;50.898;6.054;2023-02-28T17:58:03;9.00;;;4.88;;
59824;SDS011;45703;50.898;6.054;2023-02-28T18:00:29;9.40;;;4.60;;
59824;SDS011;45703;50.898;6.054;2023-02-28T18:02:55;8.90;;;4.07;;
59824;SDS011;45703;50.898;6.054;2023-02-28T18:05:20;9.77;;;4.57;;
59824;SDS011;45703;50.898;6.054;2023-02-28T18:07:46;8.70;;;4.55;;
59824;SDS011;45703;50.898;6.054;2023-02-28T18:10:13;9.85;;;4.70;;